x

Central Dixon Entrance Buoy (46145) Wave Buoy

10:00pm - Thu 24th Apr 2014 All times are PDT. -7 hours from GMT.

  • Sig Wave height 8.5ft
  • Peak Period 15s
  • Wind
    18mph, 22mph gusts
  • Sea Temp 45°f
  • Air Temp 45°f
  • Sea Pressure 1005.4mb
  • Central Dixon Entrance Buoy
  • Central Dixon Entrance Buoy

More Historic Weather Station data

Upgrade to MSW Pro to gain access to the past 30 days of data for over 8000 Wavebouys and Weather Stations around the globe.

Join Pro

Comparision Forecast

View Surf forecast
   
Thu 04/24 10:00pm 8.5ft 15s 18 22 mph 1005.4mb 45f 45f
9:00pm 8.5ft 16s 22 27 mph 1004.4mb 45f 45f
8:00pm 9ft 14s 22 29 mph 1004mb 45f 45f
7:00pm 8.5ft 15s 25 31 mph 1003.8mb 45f 45f
6:00pm 8ft 14s 22 27 mph 1003.6mb 45f 46f
5:00pm 7ft 15s 20 25 mph 1003.4mb 45f 46f
4:00pm 6ft 16s 20 25 mph 1003.2mb 45f 46f
3:00pm 5ft 16s 18 20 mph 1003mb 46f 46f
2:00pm 4.5ft 17s 13 18 mph 1002.7mb 45f 46f
1:00pm 4ft 17s 13 16 mph 1002.4mb 45f 45f
12:00pm 3.5ft 16s 11 13 mph 1002mb 45f 45f
11:00am 3.5ft 16s 9 11 mph 1001.8mb 45f 45f
10:00am 3.5ft 16s 13
mph
1001.5mb 45f 44f
8:00am 3.5ft 17s 16 18 mph 1001.7mb 45f 44f
7:00am 3ft 16s 13 16 mph 1002.1mb 45f 44f
6:00am 2.5ft 17s 11 13 mph 1002.3mb 45f 44f
5:00am 2.5ft 17s 11 13 mph 1002.7mb 45f 44f
4:00am 2.5ft 17s 13
mph
1003mb 45f 44f
3:00am 2.5ft 18s 9 11 mph 1003.1mb 45f 44f
2:00am 2ft 9s 4 7 mph 1003.4mb 45f 45f
1:00am 2ft 18s 7
mph
1003.6mb 45f 44f
12:00am 2.5ft 9s 4 7 mph 1003.9mb 45f 44f
Wed 04/23 11:00pm 2.5ft 10s 9
mph
1004.1mb 46f 44f
10:00pm 2.5ft 10s 7 9 mph 1004.4mb 46f 44f
9:00pm 3ft 10s 4 7 mph 1004.7mb 46f 45f
8:00pm 2.5ft 10s 4
mph
1004.9mb 46f 46f
7:00pm 3ft 11s 2 4 mph 1005.8mb 46f 46f
6:00pm 3ft 10s 7
mph
1006.1mb 46f 45f
5:00pm 3.5ft 10s 9
mph
1006.5mb 46f 44f
4:00pm 3.5ft 10s 7 9 mph 1007.2mb 47f 44f
3:00pm 3.5ft 10s 4 7 mph 1007.8mb 48f 44f
2:00pm 3.5ft 11s  -  2 mph 1008.5mb 47f 44f
1:00pm 3.5ft 10s 2 4 mph 1008.5mb 46f 44f
12:00pm 3.5ft 11s 2 4 mph 1008.6mb 45f 43f
11:00am 3.5ft 11s 2 4 mph 1008.6mb 45f 43f
10:00am 4ft 11s 4
mph
1008.7mb 45f 43f
9:00am 4ft 11s 4 7 mph 1008.6mb 44f 43f
8:00am 4ft 11s 7 9 mph 1008.8mb 44f 43f
7:00am 4ft 11s 4
mph
1009mb 44f 43f
6:00am 3.5ft 11s 7 9 mph 1009.2mb 44f 43f
5:00am 4ft 10s 7 9 mph 1009.6mb 44f 43f
4:00am 4.5ft 11s 7 9 mph 1009.6mb 44f 43f
3:00am 5ft 11s 7 9 mph 1009.5mb 44f 43f
2:00am 5ft 11s 9 11 mph 1009.6mb 44f 43f
1:00am 5.5ft 11s 11 13 mph 1009.5mb 44f 43f
12:00am 6ft 11s 11 13 mph 1009.3mb 44f 43f
Tue 04/22 11:00pm 5.5ft 12s 11 13 mph 1009mb 45f 43f
10:00pm 5ft 12s 9 11 mph 1009.3mb 44f 44f
9:00pm 4.5ft 11s 11 13 mph 1009mb 44f 44f
8:00pm 4.5ft 12s 9 11 mph 1008.8mb 45f 45f
7:00pm 5ft 12s 11 13 mph 1008.6mb 45f 45f
6:00pm 5ft 12s 11 13 mph 1008.7mb 45f 45f
5:00pm 5ft 12s 13 16 mph 1008.8mb 45f 45f
4:00pm 5ft 12s 13 16 mph 1009mb 45f 45f
3:00pm 4.5ft 12s 11 16 mph 1009.1mb 45f 44f
2:00pm 5ft 12s 11 13 mph 1008.8mb 45f 44f
1:00pm 5ft 12s 9 11 mph 1008.9mb 45f 44f
12:00pm 5ft 12s 9 11 mph 1009.2mb 44f 43f
11:00am 5ft 12s 7 9 mph 1008.9mb 44f 43f
10:00am 5.5ft 13s 7 9 mph 1008.9mb 44f 43f
9:00am 5ft 13s 7 9 mph 1009.1mb 44f 42f
8:00am 5ft 13s 4 7 mph 1009.2mb 44f 42f
7:00am 5ft 12s 2 7 mph 1009.6mb 44f 41f
6:00am 5ft 13s 2 4 mph 1009.9mb 44f 40f
5:00am 5.5ft 12s 9 11 mph 1010.6mb 44f 41f
4:00am 4.5ft 12s 4
mph
1011.1mb 44f 43f
3:00am 5ft 12s 4
mph
1011.7mb 44f 43f
2:00am 4.5ft 13s 4
mph
1012.3mb 44f 44f
1:00am 6ft 12s 9 11 mph 1012.7mb 44f 44f
12:00am 5ft 12s 11 13 mph 1013.2mb 44f 44f
Mon 04/21 11:00pm 5.5ft 12s 11 13 mph 1013.5mb 44f 44f
10:00pm 5.5ft 12s 11 13 mph 1013.6mb 44f 44f
9:00pm 5.5ft 11s 9 13 mph 1013.6mb 44f 44f
8:00pm 6ft 12s 4 7 mph 1013.9mb 44f 44f
7:00pm 6ft 12s 4 7 mph 1014.5mb 44f 45f
6:00pm 6ft 12s 4 7 mph 1014.8mb 45f 45f
5:00pm 5ft 12s 11 13 mph 1015.1mb 44f 45f
4:00pm 5ft 12s 11 13 mph 1015.7mb 44f 44f
3:00pm 5.5ft 12s 13 18 mph 1015.8mb 44f 44f
2:00pm 5ft 12s 18 22 mph 1016mb 44f 43f
1:00pm 6ft 10s 18 22 mph 1016mb 44f 44f
12:00pm 6ft 12s 13 16 mph 1016.2mb 44f 44f
11:00am 7ft 11s 9 11 mph 1016.1mb 44f 44f
10:00am 6ft 12s 9 11 mph 1016mb 44f 44f
9:00am 6ft 12s 9 11 mph 1015.7mb 44f 43f
8:00am 6ft 12s 9 11 mph 1015.3mb 44f 43f
7:00am 5.5ft 12s 13 16 mph 1014.9mb 44f 42f